createdAt,value
2023-03-27T00:00:19.196Z,626.00
2023-03-27T00:01:19.247Z,629.00
2023-03-27T00:02:19.353Z,627.00
2023-03-27T00:03:19.398Z,636.00
2023-03-27T00:04:19.405Z,628.00
2023-03-27T00:05:19.385Z,631.00
2023-03-27T00:06:19.435Z,635.00
2023-03-27T00:07:19.465Z,633.00
2023-03-27T00:08:19.588Z,630.00
2023-03-27T00:09:19.550Z,637.00
2023-03-27T00:10:19.634Z,633.00
2023-03-27T00:11:20.148Z,628.00
2023-03-27T00:12:19.662Z,620.00
2023-03-27T00:13:19.695Z,620.00
2023-03-27T00:14:19.747Z,622.00
2023-03-27T00:15:19.799Z,620.00
2023-03-27T00:16:19.869Z,618.00
2023-03-27T00:17:19.954Z,614.00
2023-03-27T00:18:19.912Z,622.00
2023-03-27T00:19:19.974Z,619.00
2023-03-27T00:20:20.000Z,608.00
2023-03-27T00:21:20.039Z,610.00
2023-03-27T00:22:20.085Z,615.00
2023-03-27T00:23:20.152Z,603.00
2023-03-27T00:24:20.173Z,601.00
2023-03-27T00:25:20.226Z,605.00
2023-03-27T00:26:20.277Z,595.00
2023-03-27T00:27:20.301Z,603.00
2023-03-27T00:28:20.359Z,601.00
2023-03-27T00:29:20.400Z,597.00
2023-03-27T00:30:20.458Z,600.00
2023-03-27T00:31:20.543Z,602.00
2023-03-27T00:32:20.539Z,600.00
2023-03-27T00:33:20.587Z,599.00
2023-03-27T00:34:20.639Z,593.00
2023-03-27T00:35:20.708Z,599.00
2023-03-27T00:36:20.721Z,597.00
2023-03-27T00:37:20.762Z,592.00
2023-03-27T00:38:20.804Z,598.00
2023-03-27T00:39:20.848Z,588.00
2023-03-27T00:40:20.905Z,583.00
2023-03-27T00:41:21.033Z,584.00
2023-03-27T00:42:21.003Z,582.00
2023-03-27T00:43:21.050Z,580.00
2023-03-27T00:44:21.101Z,584.00
2023-03-27T00:45:21.147Z,584.00
2023-03-27T00:46:21.292Z,586.00
2023-03-27T00:47:21.241Z,591.00
2023-03-27T00:48:21.292Z,578.00
2023-03-27T00:49:21.423Z,579.00
2023-03-27T00:50:21.393Z,585.00
2023-03-27T00:51:21.467Z,586.00
2023-03-27T00:52:21.494Z,578.00
2023-03-27T00:53:21.539Z,577.00
2023-03-27T00:54:21.581Z,576.00
2023-03-27T00:55:21.637Z,579.00
2023-03-27T00:56:21.756Z,587.00
2023-03-27T00:57:21.725Z,579.00
2023-03-27T00:58:21.773Z,580.00
2023-03-27T00:59:21.819Z,581.00
2023-03-27T01:00:22.639Z,580.00
2023-03-27T01:01:21.963Z,584.00
2023-03-27T01:02:22.030Z,585.00
2023-03-27T01:03:22.079Z,579.00
2023-03-27T01:04:22.053Z,581.00
2023-03-27T01:05:22.098Z,580.00
2023-03-27T01:06:22.176Z,581.00
2023-03-27T01:07:22.203Z,588.00
2023-03-27T01:08:22.265Z,582.00
2023-03-27T01:09:22.370Z,582.00
2023-03-27T01:10:22.368Z,590.00
2023-03-27T01:11:22.458Z,587.00
2023-03-27T01:12:23.210Z,586.00
2023-03-27T01:13:22.524Z,585.00
2023-03-27T01:14:22.556Z,586.00
2023-03-27T01:15:23.145Z,582.00
2023-03-27T01:16:22.673Z,592.00
2023-03-27T01:17:22.746Z,590.00
2023-03-27T01:18:22.738Z,591.00
2023-03-27T01:19:22.790Z,587.00
2023-03-27T01:20:22.833Z,591.00
2023-03-27T01:21:22.884Z,593.00
2023-03-27T01:22:22.955Z,592.00
2023-03-27T01:23:35.505Z,598.00
2023-03-27T01:24:24.161Z,598.00
2023-03-27T01:25:22.963Z,599.00
2023-03-27T01:26:35.601Z,599.00
2023-03-27T01:27:23.967Z,598.00
2023-03-27T01:28:22.955Z,599.00
2023-03-27T01:29:22.951Z,601.00
2023-03-27T01:30:22.986Z,601.00
2023-03-27T01:31:22.969Z,609.00
2023-03-27T01:32:23.013Z,602.00
2023-03-27T01:33:22.912Z,605.00
2023-03-27T01:34:22.904Z,596.00
2023-03-27T01:35:22.941Z,595.00
2023-03-27T01:36:22.887Z,601.00
2023-03-27T01:37:22.880Z,601.00
2023-03-27T01:38:22.902Z,606.00
2023-03-27T01:39:22.942Z,602.00
2023-03-27T01:40:22.989Z,599.00
2023-03-27T01:41:23.015Z,606.00
2023-03-27T01:42:23.052Z,607.00
2023-03-27T01:43:23.116Z,603.00
2023-03-27T01:44:23.142Z,605.00
2023-03-27T01:45:24.162Z,606.00
2023-03-27T01:46:23.248Z,609.00
2023-03-27T01:47:23.705Z,608.00
2023-03-27T01:48:23.308Z,610.00
2023-03-27T01:49:23.338Z,612.00
2023-03-27T01:50:23.376Z,609.00
2023-03-27T01:51:23.459Z,611.00
2023-03-27T01:52:23.439Z,618.00
2023-03-27T01:53:23.474Z,613.00
2023-03-27T01:54:23.523Z,616.00
2023-03-27T01:55:23.564Z,619.00
2023-03-27T01:56:23.660Z,614.00
2023-03-27T01:57:23.641Z,622.00
2023-03-27T01:58:23.694Z,620.00
2023-03-27T01:59:23.838Z,619.00
2023-03-27T02:00:23.750Z,620.00
2023-03-27T02:01:23.812Z,619.00
2023-03-27T02:02:23.877Z,620.00
2023-03-27T02:03:23.909Z,618.00
2023-03-27T02:04:23.980Z,625.00
2023-03-27T02:05:23.974Z,617.00
2023-03-27T02:06:24.019Z,619.00
2023-03-27T02:07:24.089Z,626.00
2023-03-27T02:08:24.137Z,621.00
2023-03-27T02:09:24.173Z,627.00
2023-03-27T02:10:24.217Z,622.00
2023-03-27T02:11:24.257Z,623.00
2023-03-27T02:12:24.302Z,626.00
2023-03-27T02:13:24.334Z,627.00
2023-03-27T02:14:24.373Z,630.00
2023-03-27T02:15:26.268Z,631.00
2023-03-27T02:16:24.471Z,628.00
2023-03-27T02:17:24.522Z,622.00
2023-03-27T02:18:24.510Z,624.00
2023-03-27T02:19:24.554Z,628.00
2023-03-27T02:20:24.678Z,625.00
2023-03-27T02:21:24.631Z,629.00
2023-03-27T02:22:37.498Z,626.00
2023-03-27T02:23:25.666Z,627.00
2023-03-27T02:24:24.666Z,627.00
2023-03-27T02:25:24.664Z,628.00
2023-03-27T02:26:24.646Z,631.00
2023-03-27T02:27:24.662Z,630.00
2023-03-27T02:28:24.628Z,624.00
2023-03-27T02:29:24.621Z,620.00
2023-03-27T02:30:24.614Z,619.00
2023-03-27T02:31:32.601Z,619.00
2023-03-27T02:32:25.662Z,620.00
2023-03-27T02:33:24.598Z,620.00
2023-03-27T02:34:24.600Z,620.00
2023-03-27T02:35:24.610Z,623.00
2023-03-27T02:36:24.638Z,628.00
2023-03-27T02:37:32.372Z,617.00
2023-03-27T02:38:25.674Z,617.00
2023-03-27T02:39:24.688Z,618.00
2023-03-27T02:40:24.695Z,620.00
2023-03-27T02:41:24.707Z,616.00
2023-03-27T02:42:24.725Z,626.00
2023-03-27T02:43:24.750Z,627.00
2023-03-27T02:44:24.782Z,633.00
2023-03-27T02:45:24.810Z,633.00
2023-03-27T02:46:24.894Z,624.00
2023-03-27T02:47:24.901Z,625.00
2023-03-27T02:48:24.872Z,628.00
2023-03-27T02:49:24.887Z,626.00
2023-03-27T02:50:24.936Z,627.00
2023-03-27T02:51:24.934Z,623.00
2023-03-27T02:52:24.967Z,628.00
2023-03-27T02:53:24.981Z,624.00
2023-03-27T02:54:25.006Z,632.00
2023-03-27T02:55:25.011Z,632.00
2023-03-27T02:56:25.010Z,632.00
2023-03-27T02:57:25.341Z,629.00
2023-03-27T02:58:25.034Z,638.00
2023-03-27T02:59:25.080Z,630.00
2023-03-27T03:00:25.097Z,636.00
2023-03-27T03:01:25.146Z,633.00
2023-03-27T03:02:25.189Z,629.00
2023-03-27T03:03:25.168Z,630.00
2023-03-27T03:04:25.177Z,633.00
2023-03-27T03:05:25.113Z,633.00
2023-03-27T03:06:25.138Z,633.00
2023-03-27T03:07:25.144Z,633.00
2023-03-27T03:08:25.146Z,634.00
2023-03-27T03:09:25.157Z,632.00
2023-03-27T03:10:25.169Z,634.00
2023-03-27T03:11:25.163Z,633.00
2023-03-27T03:12:25.162Z,633.00
2023-03-27T03:13:25.188Z,633.00
2023-03-27T03:14:25.181Z,637.00
2023-03-27T03:15:25.179Z,633.00
2023-03-27T03:16:25.184Z,640.00
2023-03-27T03:17:25.203Z,637.00
2023-03-27T03:18:25.193Z,634.00
2023-03-27T03:19:25.186Z,635.00
2023-03-27T03:20:25.176Z,632.00
2023-03-27T03:21:25.182Z,636.00
2023-03-27T03:22:25.181Z,631.00
2023-03-27T03:23:25.175Z,630.00
2023-03-27T03:24:25.197Z,632.00
2023-03-27T03:25:25.183Z,635.00
2023-03-27T03:26:25.177Z,635.00
2023-03-27T03:27:25.173Z,636.00
2023-03-27T03:28:25.231Z,638.00
2023-03-27T03:29:25.190Z,641.00
2023-03-27T03:30:25.201Z,643.00
2023-03-27T03:31:25.212Z,639.00
2023-03-27T03:32:25.230Z,639.00
2023-03-27T03:33:25.192Z,641.00
2023-03-27T03:34:25.203Z,635.00
2023-03-27T03:35:25.260Z,637.00
2023-03-27T03:36:25.224Z,633.00
2023-03-27T03:37:25.221Z,636.00
2023-03-27T03:38:25.223Z,636.00
2023-03-27T03:39:25.245Z,630.00
2023-03-27T03:40:25.250Z,627.00
2023-03-27T03:41:25.260Z,629.00
2023-03-27T03:43:25.262Z,630.00
2023-03-27T03:44:25.724Z,628.00
2023-03-27T03:45:25.277Z,630.00
2023-03-27T03:47:25.293Z,625.00
2023-03-27T03:48:25.331Z,622.00
2023-03-27T03:49:25.302Z,626.00
2023-03-27T03:50:25.728Z,628.00
2023-03-27T03:51:25.284Z,628.00
2023-03-27T03:52:25.284Z,623.00
2023-03-27T03:53:25.286Z,619.00
2023-03-27T03:54:25.286Z,625.00
2023-03-27T03:55:25.289Z,628.00
2023-03-27T03:56:25.273Z,623.00
2023-03-27T03:57:25.291Z,627.00
2023-03-27T03:59:25.332Z,624.00
2023-03-27T04:00:25.720Z,630.00
2023-03-27T04:01:25.317Z,628.00
2023-03-27T04:03:25.397Z,624.00
2023-03-27T04:04:25.305Z,625.00
2023-03-27T04:05:25.318Z,626.00
2023-03-27T04:07:25.319Z,625.00
2023-03-27T04:08:25.319Z,626.00
2023-03-27T04:09:25.308Z,629.00
2023-03-27T04:11:25.313Z,627.00
2023-03-27T04:12:25.322Z,627.00
2023-03-27T04:13:25.339Z,629.00
2023-03-27T04:15:25.350Z,623.00
2023-03-27T04:16:25.359Z,624.00
2023-03-27T04:17:25.416Z,624.00
2023-03-27T04:18:25.401Z,621.00
2023-03-27T04:19:26.218Z,621.00
2023-03-27T04:20:25.344Z,622.00
2023-03-27T04:21:25.357Z,624.00
2023-03-27T04:22:25.358Z,624.00
2023-03-27T04:23:25.359Z,624.00
2023-03-27T04:24:25.364Z,620.00
2023-03-27T04:25:26.218Z,620.00
2023-03-27T04:27:25.372Z,621.00
2023-03-27T04:28:25.374Z,624.00
2023-03-27T04:29:25.425Z,621.00
2023-03-27T04:31:25.393Z,622.00
2023-03-27T04:32:25.505Z,621.00
2023-03-27T04:33:25.405Z,622.00
2023-03-27T04:34:26.405Z,622.00
2023-03-27T04:35:25.422Z,622.00
2023-03-27T04:36:25.518Z,623.00
2023-03-27T04:37:25.381Z,622.00
2023-03-27T04:38:25.384Z,628.00
2023-03-27T04:39:25.418Z,623.00
2023-03-27T04:40:25.360Z,620.00
2023-03-27T04:41:26.230Z,620.00
2023-03-27T04:43:25.353Z,620.00
2023-03-27T04:44:25.346Z,619.00
2023-03-27T04:45:25.330Z,620.00
2023-03-27T04:47:25.388Z,619.00
2023-03-27T04:48:26.232Z,613.00
2023-03-27T04:49:25.296Z,616.00
2023-03-27T04:51:25.282Z,616.00
2023-03-27T04:52:25.285Z,618.00
2023-03-27T04:53:25.274Z,623.00
2023-03-27T04:55:25.360Z,625.00
2023-03-27T04:56:25.258Z,618.00
2023-03-27T04:57:25.250Z,623.00
2023-03-27T04:59:25.260Z,618.00
2023-03-27T05:00:25.300Z,616.00
2023-03-27T05:01:25.427Z,617.00
2023-03-27T05:03:25.318Z,616.00
2023-03-27T05:04:25.318Z,618.00
2023-03-27T05:05:25.342Z,615.00
2023-03-27T05:06:25.351Z,622.00
2023-03-27T05:07:25.369Z,618.00
2023-03-27T05:08:25.444Z,625.00
2023-03-27T05:09:25.469Z,618.00
2023-03-27T05:10:25.492Z,616.00
2023-03-27T05:11:25.499Z,612.00
2023-03-27T05:12:25.518Z,615.00
2023-03-27T05:13:25.515Z,617.00
2023-03-27T05:14:25.537Z,608.00
2023-03-27T05:15:25.555Z,615.00
2023-03-27T05:16:25.599Z,613.00
2023-03-27T05:17:25.598Z,616.00
2023-03-27T05:18:25.598Z,614.00
2023-03-27T05:19:26.746Z,612.00
2023-03-27T05:20:25.686Z,611.00
2023-03-27T05:21:25.706Z,613.00
2023-03-27T05:22:25.719Z,610.00
2023-03-27T05:23:25.735Z,616.00
2023-03-27T05:24:25.755Z,624.00
2023-03-27T05:25:25.760Z,631.00
2023-03-27T05:26:25.769Z,632.00
2023-03-27T05:27:25.782Z,642.00
2023-03-27T05:28:25.772Z,642.00
2023-03-27T05:29:25.768Z,651.00
2023-03-27T05:30:25.849Z,670.00
2023-03-27T05:31:25.856Z,687.00
2023-03-27T05:32:25.928Z,728.00
2023-03-27T05:33:26.291Z,777.00
2023-03-27T05:34:25.992Z,828.00
2023-03-27T05:35:26.091Z,878.00
2023-03-27T05:36:26.094Z,930.00
2023-03-27T05:37:27.435Z,972.00
2023-03-27T05:38:26.190Z,1020.00
2023-03-27T05:39:26.235Z,1070.00
2023-03-27T05:40:26.294Z,1109.00
2023-03-27T05:41:26.313Z,1159.00
2023-03-27T05:42:26.352Z,1209.00
2023-03-27T05:43:26.393Z,1257.00
2023-03-27T05:44:26.421Z,1313.00
2023-03-27T05:45:26.445Z,1368.00
2023-03-27T05:46:26.518Z,1436.00
2023-03-27T05:47:26.515Z,1498.00
2023-03-27T05:48:26.518Z,1552.00
2023-03-27T05:49:26.519Z,1591.00
2023-03-27T05:50:26.542Z,1644.00
2023-03-27T05:51:26.550Z,1699.00
2023-03-27T05:52:28.796Z,1747.00
2023-03-27T05:53:29.013Z,1791.00
2023-03-27T05:54:26.640Z,1830.00
2023-03-27T05:55:27.944Z,1876.00
2023-03-27T05:56:26.632Z,1911.00
2023-03-27T05:57:26.633Z,1947.00
2023-03-27T05:59:26.624Z,2012.00
2023-03-27T06:00:26.622Z,2040.00
2023-03-27T06:01:26.619Z,2054.00
2023-03-27T06:03:27.364Z,2132.00
2023-03-27T06:04:26.668Z,2159.00
2023-03-27T06:05:26.795Z,2189.00
2023-03-27T06:07:26.724Z,2251.00
2023-03-27T06:08:26.733Z,2259.00
2023-03-27T06:09:26.755Z,2298.00
2023-03-27T06:10:26.801Z,2321.00
2023-03-27T06:11:26.855Z,2354.00
2023-03-27T06:12:26.915Z,2404.00
2023-03-27T06:13:26.953Z,2481.00
2023-03-27T06:14:27.010Z,2572.00
2023-03-27T06:15:27.071Z,2656.00
2023-03-27T06:16:27.276Z,2681.00
2023-03-27T06:17:27.192Z,2713.00
2023-03-27T06:18:27.240Z,2756.00
2023-03-27T06:19:27.327Z,2766.00
2023-03-27T06:20:27.357Z,2795.00
2023-03-27T06:21:27.426Z,2809.00
2023-03-27T06:22:27.463Z,2812.00
2023-03-27T06:23:27.527Z,2842.00
2023-03-27T06:24:27.572Z,2855.00
2023-03-27T06:25:27.639Z,2875.00
2023-03-27T06:26:27.680Z,3121.00
2023-03-27T06:27:27.718Z,2065.00
2023-03-27T06:28:27.731Z,1117.00
2023-03-27T06:29:27.760Z,588.00
2023-03-27T06:30:27.816Z,506.00
2023-03-27T06:31:27.856Z,490.00
2023-03-27T06:32:27.875Z,436.00
2023-03-27T06:33:27.856Z,440.00
2023-03-27T06:34:27.856Z,485.00
2023-03-27T06:35:27.928Z,506.00
2023-03-27T06:36:28.029Z,546.00
2023-03-27T06:37:27.972Z,620.00
2023-03-27T06:38:27.978Z,867.00
2023-03-27T06:39:28.773Z,1112.00
2023-03-27T06:40:28.216Z,1263.00
2023-03-27T06:41:28.101Z,1376.00
2023-03-27T06:42:28.126Z,1424.00
2023-03-27T06:43:28.145Z,1446.00
2023-03-27T06:44:28.201Z,1471.00
2023-03-27T06:45:28.190Z,1512.00
2023-03-27T06:46:42.815Z,1550.00
2023-03-27T06:47:29.391Z,1553.00
2023-03-27T06:48:28.445Z,1563.00
2023-03-27T06:49:28.389Z,1615.00
2023-03-27T06:50:28.413Z,1732.00
2023-03-27T06:51:28.410Z,1975.00
2023-03-27T06:52:28.433Z,2106.00
2023-03-27T06:53:29.549Z,2151.00
2023-03-27T06:54:28.800Z,2204.00
2023-03-27T06:55:28.657Z,2217.00
2023-03-27T06:56:28.582Z,2279.00
2023-03-27T06:57:28.579Z,2329.00
2023-03-27T06:58:28.612Z,2384.00
2023-03-27T06:59:28.609Z,2436.00
2023-03-27T07:00:28.654Z,2481.00
2023-03-27T07:01:28.716Z,2491.00
2023-03-27T07:02:28.759Z,2506.00
2023-03-27T07:03:28.776Z,2521.00
2023-03-27T07:04:28.833Z,2555.00
2023-03-27T07:05:29.003Z,2584.00
2023-03-27T07:06:28.953Z,2589.00
2023-03-27T07:07:29.019Z,2620.00
2023-03-27T07:08:29.064Z,2652.00
2023-03-27T07:09:29.102Z,2646.00
2023-03-27T07:10:29.157Z,2677.00
2023-03-27T07:11:31.695Z,2690.00
2023-03-27T07:12:29.181Z,2717.00
2023-03-27T07:13:29.181Z,2722.00
2023-03-27T07:15:29.169Z,2792.00
2023-03-27T07:16:29.201Z,2803.00
2023-03-27T07:17:41.875Z,2811.00
2023-03-27T07:18:30.177Z,2813.00
2023-03-27T07:19:29.139Z,2818.00
2023-03-27T07:20:29.238Z,2817.00
2023-03-27T07:21:29.132Z,2814.00
2023-03-27T07:23:29.127Z,2810.00
2023-03-27T07:24:29.139Z,2803.00
2023-03-27T07:25:29.786Z,2796.00
2023-03-27T07:27:29.161Z,2762.00
2023-03-27T07:28:29.786Z,2756.00
2023-03-27T07:29:29.262Z,2751.00
2023-03-27T07:30:29.296Z,2736.00
2023-03-27T07:31:42.409Z,2719.00
2023-03-27T07:32:37.280Z,2719.00
2023-03-27T07:33:30.407Z,2720.00
2023-03-27T07:35:29.323Z,2720.00
2023-03-27T07:36:29.294Z,2710.00
2023-03-27T07:37:29.272Z,2701.00
2023-03-27T07:39:29.264Z,2681.00
2023-03-27T07:40:38.929Z,2667.00
2023-03-27T07:41:30.268Z,2668.00
2023-03-27T07:43:29.754Z,2670.00
2023-03-27T07:44:29.213Z,2651.00
2023-03-27T07:45:29.221Z,2633.00
2023-03-27T07:46:29.268Z,2626.00
2023-03-27T07:47:29.282Z,2608.00
2023-03-27T07:48:29.195Z,2602.00
2023-03-27T07:49:38.865Z,2584.00
2023-03-27T07:50:30.180Z,2585.00
2023-03-27T07:51:29.163Z,2586.00
2023-03-27T07:52:29.160Z,2586.00
2023-03-27T07:53:33.318Z,2562.00
2023-03-27T07:54:30.164Z,2579.00
2023-03-27T07:55:29.151Z,2580.00
2023-03-27T07:56:29.134Z,2567.00
2023-03-27T07:57:29.275Z,2550.00
2023-03-27T07:59:29.115Z,2534.00
2023-03-27T08:00:29.109Z,2524.00
2023-03-27T08:01:29.093Z,2520.00
2023-03-27T08:03:29.238Z,2506.00
2023-03-27T08:04:29.179Z,2483.00
2023-03-27T08:05:29.070Z,2472.00
2023-03-27T08:06:29.805Z,2477.00
2023-03-27T08:07:29.050Z,2452.00
2023-03-27T08:08:29.042Z,2447.00
2023-03-27T08:09:29.038Z,2437.00
2023-03-27T08:11:31.053Z,2421.00
2023-03-27T08:12:29.044Z,2396.00
2023-03-27T08:13:29.095Z,2377.00
2023-03-27T08:14:29.132Z,2373.00
2023-03-27T08:15:29.158Z,2382.00
2023-03-27T08:16:29.249Z,2395.00
2023-03-27T08:17:29.331Z,2398.00
2023-03-27T08:18:29.245Z,2393.00
2023-03-27T08:19:29.293Z,2403.00
2023-03-27T08:20:29.328Z,2395.00
2023-03-27T08:21:29.491Z,2391.00
2023-03-27T08:23:29.379Z,2394.00
2023-03-27T08:24:29.402Z,2371.00
2023-03-27T08:25:29.413Z,2368.00
2023-03-27T08:26:29.445Z,2346.00
2023-03-27T08:27:30.315Z,2368.00
2023-03-27T08:28:29.450Z,1943.00
2023-03-27T08:29:29.555Z,1458.00
2023-03-27T08:30:29.556Z,993.00
2023-03-27T08:31:29.613Z,780.00
2023-03-27T08:32:29.609Z,745.00
2023-03-27T08:33:29.693Z,766.00
2023-03-27T08:34:29.768Z,880.00
2023-03-27T08:35:30.254Z,1012.00
2023-03-27T08:36:29.733Z,1114.00
2023-03-27T08:37:29.826Z,1228.00
2023-03-27T08:39:29.747Z,1415.00
2023-03-27T08:40:29.811Z,1472.00
2023-03-27T08:41:29.850Z,1513.00
2023-03-27T08:42:29.911Z,1565.00
2023-03-27T08:43:29.954Z,1605.00
2023-03-27T08:44:30.009Z,1636.00
2023-03-27T08:45:30.015Z,1685.00
2023-03-27T08:46:30.097Z,1740.00
2023-03-27T08:47:30.104Z,1795.00
2023-03-27T08:48:30.045Z,1834.00
2023-03-27T08:49:30.045Z,1884.00
2023-03-27T08:50:30.048Z,1911.00
2023-03-27T08:51:30.075Z,1974.00
2023-03-27T08:52:30.191Z,2016.00
2023-03-27T08:53:30.177Z,2051.00
2023-03-27T08:54:30.243Z,2097.00
2023-03-27T08:55:30.319Z,2112.00
2023-03-27T08:56:30.351Z,2129.00
2023-03-27T08:57:30.405Z,2177.00
2023-03-27T08:58:30.468Z,2225.00
2023-03-27T08:59:30.508Z,2250.00
2023-03-27T09:00:30.601Z,2279.00
2023-03-27T09:01:30.622Z,2300.00
2023-03-27T09:02:30.692Z,2340.00
2023-03-27T09:03:30.820Z,2363.00
2023-03-27T09:04:30.725Z,2398.00
2023-03-27T09:05:30.754Z,2408.00
2023-03-27T09:06:30.796Z,2420.00
2023-03-27T09:07:30.824Z,2466.00
2023-03-27T09:08:30.871Z,2464.00
2023-03-27T09:09:30.918Z,2478.00
2023-03-27T09:10:30.936Z,2509.00
2023-03-27T09:11:30.969Z,2532.00
2023-03-27T09:12:30.984Z,2551.00
2023-03-27T09:13:31.065Z,2576.00
2023-03-27T09:14:31.029Z,2605.00
2023-03-27T09:15:31.054Z,2624.00
2023-03-27T09:16:31.127Z,2655.00
2023-03-27T09:17:31.115Z,2658.00
2023-03-27T09:19:31.133Z,2659.00
2023-03-27T09:20:32.152Z,2660.00
2023-03-27T09:21:31.157Z,2661.00
2023-03-27T09:23:31.099Z,2671.00
2023-03-27T09:24:31.089Z,2684.00
2023-03-27T09:25:31.101Z,2687.00
2023-03-27T09:27:31.084Z,2741.00
2023-03-27T09:28:31.095Z,2744.00
2023-03-27T09:29:31.065Z,2756.00
2023-03-27T09:30:31.846Z,2766.00
2023-03-27T09:31:31.057Z,2776.00
2023-03-27T09:32:33.535Z,2778.00
2023-03-27T09:33:31.030Z,2800.00
2023-03-27T09:35:31.088Z,2799.00
2023-03-27T09:36:31.010Z,2824.00
2023-03-27T09:37:31.016Z,2831.00
2023-03-27T09:39:31.058Z,2846.00
2023-03-27T09:40:30.994Z,2847.00
2023-03-27T09:41:31.846Z,2861.00
2023-03-27T09:43:30.978Z,2892.00
2023-03-27T09:44:30.955Z,2898.00
2023-03-27T09:45:30.953Z,2897.00
2023-03-27T09:46:30.985Z,2919.00
2023-03-27T09:47:31.385Z,2915.00
2023-03-27T09:48:30.933Z,2936.00
2023-03-27T09:49:30.916Z,2948.00
2023-03-27T09:50:30.927Z,2960.00
2023-03-27T09:51:30.912Z,2978.00
2023-03-27T09:52:30.904Z,2995.00
2023-03-27T09:53:30.922Z,2994.00
2023-03-27T09:55:30.950Z,3025.00
2023-03-27T09:56:30.888Z,3034.00
2023-03-27T09:57:30.868Z,3044.00
2023-03-27T09:59:30.856Z,3053.00
2023-03-27T10:00:30.908Z,3058.00
2023-03-27T10:01:30.913Z,3069.00
2023-03-27T10:03:30.848Z,3088.00
2023-03-27T10:04:31.781Z,3100.00
2023-03-27T10:05:30.826Z,3097.00
2023-03-27T10:07:30.801Z,3116.00
2023-03-27T10:08:30.806Z,3119.00
2023-03-27T10:09:30.804Z,3133.00
2023-03-27T10:11:30.786Z,3141.00
2023-03-27T10:12:30.863Z,3169.00
2023-03-27T10:13:30.783Z,3156.00
2023-03-27T10:14:30.776Z,3142.00
2023-03-27T10:15:30.813Z,2860.00
2023-03-27T10:16:30.901Z,2498.00
2023-03-27T10:17:30.782Z,2285.00
2023-03-27T10:18:30.762Z,1938.00
2023-03-27T10:19:30.751Z,1775.00
2023-03-27T10:20:30.727Z,1636.00
2023-03-27T10:21:30.897Z,1507.00
2023-03-27T10:23:30.770Z,1430.00
2023-03-27T10:24:30.781Z,1375.00
2023-03-27T10:25:30.702Z,1272.00
2023-03-27T10:27:30.875Z,1173.00
2023-03-27T10:28:30.684Z,1093.00
2023-03-27T10:29:30.691Z,1201.00
2023-03-27T10:30:30.679Z,1249.00
2023-03-27T10:31:31.385Z,1330.00
2023-03-27T10:32:30.673Z,1374.00
2023-03-27T10:33:30.687Z,1489.00
2023-03-27T10:34:30.649Z,1541.00
2023-03-27T10:35:30.706Z,1610.00
2023-03-27T10:36:30.625Z,1642.00
2023-03-27T10:37:30.622Z,1661.00
2023-03-27T10:38:31.382Z,1691.00
2023-03-27T10:39:30.632Z,1708.00
2023-03-27T10:40:30.601Z,1781.00
2023-03-27T10:41:30.611Z,1841.00
2023-03-27T10:42:33.435Z,1877.00
2023-03-27T10:43:30.618Z,1933.00
2023-03-27T10:44:30.701Z,1995.00
2023-03-27T10:45:30.654Z,2046.00
2023-03-27T10:47:30.574Z,2133.00
2023-03-27T10:48:30.626Z,2178.00
2023-03-27T10:49:30.544Z,2202.00
2023-03-27T10:51:39.362Z,2289.00
2023-03-27T10:52:31.522Z,2292.00
2023-03-27T10:53:30.596Z,2308.00
2023-03-27T10:55:30.502Z,2402.00
2023-03-27T10:56:30.588Z,2506.00
2023-03-27T10:57:32.296Z,2528.00
2023-03-27T10:59:41.143Z,2593.00
2023-03-27T11:00:31.469Z,2596.00
2023-03-27T11:01:30.508Z,2606.00
2023-03-27T11:03:30.490Z,2655.00
2023-03-27T11:04:30.525Z,2721.00
2023-03-27T11:05:30.522Z,2753.00
2023-03-27T11:07:30.415Z,2777.00
2023-03-27T11:08:30.403Z,2761.00
2023-03-27T11:09:30.472Z,2767.00
2023-03-27T11:11:30.388Z,2749.00
2023-03-27T11:12:32.409Z,2737.00
2023-03-27T11:13:30.486Z,2710.00
2023-03-27T11:15:30.361Z,2718.00
2023-03-27T11:16:30.389Z,2707.00
2023-03-27T11:17:30.370Z,2693.00
2023-03-27T11:19:30.343Z,2671.00
2023-03-27T11:20:30.328Z,2673.00
2023-03-27T11:21:30.368Z,2656.00
2023-03-27T11:22:30.415Z,2653.00
2023-03-27T11:23:30.460Z,2629.00
2023-03-27T11:24:30.523Z,2634.00
2023-03-27T11:25:30.562Z,2645.00
2023-03-27T11:26:30.620Z,2626.00
2023-03-27T11:27:30.669Z,2627.00
2023-03-27T11:28:30.700Z,2611.00
2023-03-27T11:29:30.768Z,2608.00
2023-03-27T11:30:30.822Z,2609.00
2023-03-27T11:31:30.912Z,2584.00
2023-03-27T11:32:30.945Z,2572.00
2023-03-27T11:33:30.972Z,2585.00
2023-03-27T11:34:31.024Z,2579.00
2023-03-27T11:35:31.097Z,2576.00
2023-03-27T11:36:31.127Z,2564.00
2023-03-27T11:37:31.158Z,2560.00
2023-03-27T11:38:31.185Z,2557.00
2023-03-27T11:39:31.238Z,2540.00
2023-03-27T11:40:31.233Z,2536.00
2023-03-27T11:41:31.254Z,2536.00
2023-03-27T11:42:31.439Z,2526.00
2023-03-27T11:43:31.364Z,2535.00
2023-03-27T11:44:31.898Z,2530.00
2023-03-27T11:45:31.396Z,2513.00
2023-03-27T11:46:31.470Z,2503.00
2023-03-27T11:47:31.933Z,2501.00
2023-03-27T11:48:31.406Z,2503.00
2023-03-27T11:49:31.400Z,2484.00
2023-03-27T11:51:32.322Z,2459.00
2023-03-27T11:52:31.412Z,2402.00
2023-03-27T11:53:31.572Z,2318.00
2023-03-27T11:55:32.571Z,2231.00
2023-03-27T11:56:31.474Z,2152.00
2023-03-27T11:57:31.508Z,2115.00
2023-03-27T11:58:31.537Z,2043.00
2023-03-27T11:59:32.823Z,2012.00
2023-03-27T12:00:31.642Z,1967.00
2023-03-27T12:01:31.685Z,1905.00
2023-03-27T12:02:31.817Z,1865.00
2023-03-27T12:03:31.867Z,1857.00
2023-03-27T12:04:31.835Z,1871.00
2023-03-27T12:05:31.885Z,1880.00
2023-03-27T12:06:31.939Z,1843.00
2023-03-27T12:07:36.642Z,1821.00
2023-03-27T12:08:32.955Z,1821.00
2023-03-27T12:09:31.942Z,1819.00
2023-03-27T12:11:31.921Z,1803.00
2023-03-27T12:12:31.926Z,1790.00
2023-03-27T12:13:41.294Z,1783.00
2023-03-27T12:14:40.766Z,1783.00
2023-03-27T12:15:32.914Z,1784.00
2023-03-27T12:16:31.909Z,1785.00
2023-03-27T12:17:31.916Z,1776.00
2023-03-27T12:19:38.253Z,1770.00
2023-03-27T12:20:32.871Z,1783.00
2023-03-27T12:21:31.861Z,1783.00
2023-03-27T12:23:31.848Z,1766.00
2023-03-27T12:24:31.852Z,1775.00
2023-03-27T12:25:33.623Z,1770.00
2023-03-27T12:27:31.815Z,1771.00
2023-03-27T12:28:31.814Z,1775.00
2023-03-27T12:29:31.845Z,1773.00
2023-03-27T12:31:31.973Z,1748.00
2023-03-27T12:32:31.809Z,1749.00
2023-03-27T12:33:31.778Z,1761.00
2023-03-27T12:35:31.840Z,1733.00
2023-03-27T12:36:31.761Z,1711.00
2023-03-27T12:37:31.782Z,1731.00
2023-03-27T12:38:31.787Z,1717.00
2023-03-27T12:39:31.731Z,1709.00
2023-03-27T12:40:31.726Z,1702.00
2023-03-27T12:41:31.713Z,1682.00
2023-03-27T12:43:31.715Z,1706.00
2023-03-27T12:44:31.793Z,1696.00
2023-03-27T12:45:33.173Z,1675.00
2023-03-27T12:46:31.814Z,1676.00
2023-03-27T12:47:31.683Z,1677.00
2023-03-27T12:48:31.666Z,1681.00
2023-03-27T12:49:40.675Z,1682.00
2023-03-27T12:50:32.659Z,1676.00
2023-03-27T12:51:31.642Z,1677.00
2023-03-27T12:52:31.649Z,1675.00
2023-03-27T13:08:48.996Z,500.00
2023-03-27T13:09:48.931Z,500.00
2023-03-27T13:10:48.927Z,500.00
2023-03-27T13:11:48.907Z,500.00
2023-03-27T13:12:48.909Z,500.00
2023-03-27T13:13:48.898Z,473.00
2023-03-27T13:14:48.894Z,459.00
2023-03-27T13:15:49.010Z,467.00
2023-03-27T13:16:48.872Z,482.00
2023-03-27T13:17:48.962Z,500.00
2023-03-27T13:18:50.934Z,500.00
2023-03-27T13:19:49.604Z,488.00
2023-03-27T13:20:48.851Z,462.00
2023-03-27T13:21:48.840Z,449.00
2023-03-27T13:22:48.831Z,433.00
2023-03-27T13:23:48.821Z,420.00
2023-03-27T13:24:48.803Z,460.00
2023-03-27T13:25:48.841Z,500.00
2023-03-27T13:26:48.806Z,500.00
2023-03-27T13:27:48.828Z,500.00
2023-03-27T13:28:48.803Z,501.00
2023-03-27T13:29:48.792Z,500.00
2023-03-27T13:30:48.819Z,500.00
2023-03-27T13:31:48.803Z,501.00